sensor_id;sensor_type;location;lat;lon;timestamp;temperature;humidity
7502;DHT22;3792;47.740;7.606;2023-04-03T00:00:11;7.30;99.90
7502;DHT22;3792;47.740;7.606;2023-04-03T00:02:38;7.20;99.90
7502;DHT22;3792;47.740;7.606;2023-04-03T00:05:06;7.10;99.90
7502;DHT22;3792;47.740;7.606;2023-04-03T00:07:33;7.10;99.90
7502;DHT22;3792;47.740;7.606;2023-04-03T00:10:00;7.10;99.90
7502;DHT22;3792;47.740;7.606;2023-04-03T00:12:29;7.10;99.90
7502;DHT22;3792;47.740;7.606;2023-04-03T00:14:56;7.10;99.90
7502;DHT22;3792;47.740;7.606;2023-04-03T00:17:23;7.10;99.90
7502;DHT22;3792;47.740;7.606;2023-04-03T00:19:50;6.90;99.90
7502;DHT22;3792;47.740;7.606;2023-04-03T00:22:17;7.00;99.90
7502;DHT22;3792;47.740;7.606;2023-04-03T00:24:44;7.00;99.90
7502;DHT22;3792;47.740;7.606;2023-04-03T00:27:11;6.90;99.90
7502;DHT22;3792;47.740;7.606;2023-04-03T00:29:39;6.90;99.90
7502;DHT22;3792;47.740;7.606;2023-04-03T00:32:06;6.90;99.90
7502;DHT22;3792;47.740;7.606;2023-04-03T00:34:33;6.90;99.90
7502;DHT22;3792;47.740;7.606;2023-04-03T00:37:00;7.00;99.90
7502;DHT22;3792;47.740;7.606;2023-04-03T00:39:27;7.00;99.90
7502;DHT22;3792;47.740;7.606;2023-04-03T00:41:55;6.90;99.90
7502;DHT22;3792;47.740;7.606;2023-04-03T00:45:18;6.90;99.90
7502;DHT22;3792;47.740;7.606;2023-04-03T00:47:14;6.80;99.90
7502;DHT22;3792;47.740;7.606;2023-04-03T00:49:43;6.90;99.90
7502;DHT22;3792;47.740;7.606;2023-04-03T00:52:13;7.00;99.90
7502;DHT22;3792;47.740;7.606;2023-04-03T00:54:42;7.00;99.90
7502;DHT22;3792;47.740;7.606;2023-04-03T00:57:10;7.00;99.90
7502;DHT22;3792;47.740;7.606;2023-04-03T00:59:40;6.90;99.90
7502;DHT22;3792;47.740;7.606;2023-04-03T01:02:10;7.00;99.90
7502;DHT22;3792;47.740;7.606;2023-04-03T01:04:40;7.00;99.90
7502;DHT22;3792;47.740;7.606;2023-04-03T01:07:10;6.90;99.90
7502;DHT22;3792;47.740;7.606;2023-04-03T01:09:38;6.90;99.90
7502;DHT22;3792;47.740;7.606;2023-04-03T01:12:15;6.90;99.90
7502;DHT22;3792;47.740;7.606;2023-04-03T01:14:42;6.90;99.90
7502;DHT22;3792;47.740;7.606;2023-04-03T01:17:27;6.80;99.90
7502;DHT22;3792;47.740;7.606;2023-04-03T01:22:56;6.70;99.90
7502;DHT22;3792;47.740;7.606;2023-04-03T01:25:26;6.60;99.90
7502;DHT22;3792;47.740;7.606;2023-04-03T01:27:54;6.60;99.90
7502;DHT22;3792;47.740;7.606;2023-04-03T01:30:25;6.50;99.90
7502;DHT22;3792;47.740;7.606;2023-04-03T01:32:56;6.40;99.90
7502;DHT22;3792;47.740;7.606;2023-04-03T01:35:23;6.50;99.90
7502;DHT22;3792;47.740;7.606;2023-04-03T01:37:50;6.50;99.90
7502;DHT22;3792;47.740;7.606;2023-04-03T01:40:17;6.50;99.90
7502;DHT22;3792;47.740;7.606;2023-04-03T01:42:44;6.60;99.90
7502;DHT22;3792;47.740;7.606;2023-04-03T01:45:11;6.50;99.90
7502;DHT22;3792;47.740;7.606;2023-04-03T01:47:38;6.50;99.90
7502;DHT22;3792;47.740;7.606;2023-04-03T01:50:07;6.60;99.90
7502;DHT22;3792;47.740;7.606;2023-04-03T01:52:34;6.50;99.90
7502;DHT22;3792;47.740;7.606;2023-04-03T01:55:01;6.40;99.90
7502;DHT22;3792;47.740;7.606;2023-04-03T01:57:28;6.30;99.90
7502;DHT22;3792;47.740;7.606;2023-04-03T01:59:56;6.30;99.90
7502;DHT22;3792;47.740;7.606;2023-04-03T02:02:23;6.30;99.90
7502;DHT22;3792;47.740;7.606;2023-04-03T02:04:50;6.30;99.90
7502;DHT22;3792;47.740;7.606;2023-04-03T02:07:18;6.30;99.90
7502;DHT22;3792;47.740;7.606;2023-04-03T02:09:45;6.30;99.90
7502;DHT22;3792;47.740;7.606;2023-04-03T02:12:12;6.30;99.90
7502;DHT22;3792;47.740;7.606;2023-04-03T02:14:39;6.20;99.90
7502;DHT22;3792;47.740;7.606;2023-04-03T02:17:06;6.30;99.90
7502;DHT22;3792;47.740;7.606;2023-04-03T02:19:34;6.30;99.90
7502;DHT22;3792;47.740;7.606;2023-04-03T02:22:01;6.30;99.90
7502;DHT22;3792;47.740;7.606;2023-04-03T02:24:30;6.40;99.90
7502;DHT22;3792;47.740;7.606;2023-04-03T02:26:57;6.40;99.90
7502;DHT22;3792;47.740;7.606;2023-04-03T02:29:25;6.30;99.90
7502;DHT22;3792;47.740;7.606;2023-04-03T02:31:52;6.30;99.90
7502;DHT22;3792;47.740;7.606;2023-04-03T02:34:19;6.30;99.90
7502;DHT22;3792;47.740;7.606;2023-04-03T02:36:46;6.30;99.90
7502;DHT22;3792;47.740;7.606;2023-04-03T02:39:13;6.30;99.90
7502;DHT22;3792;47.740;7.606;2023-04-03T02:41:41;6.40;99.90
7502;DHT22;3792;47.740;7.606;2023-04-03T02:44:12;6.30;99.90
7502;DHT22;3792;47.740;7.606;2023-04-03T02:46:39;6.30;99.90
7502;DHT22;3792;47.740;7.606;2023-04-03T02:49:06;6.30;99.90
7502;DHT22;3792;47.740;7.606;2023-04-03T02:51:33;6.30;99.90
7502;DHT22;3792;47.740;7.606;2023-04-03T02:54:01;6.30;99.90
7502;DHT22;3792;47.740;7.606;2023-04-03T02:56:28;6.30;99.90
7502;DHT22;3792;47.740;7.606;2023-04-03T02:58:56;6.40;99.90
7502;DHT22;3792;47.740;7.606;2023-04-03T03:01:23;6.50;99.90
7502;DHT22;3792;47.740;7.606;2023-04-03T03:03:52;6.50;99.90
7502;DHT22;3792;47.740;7.606;2023-04-03T03:06:19;6.40;99.90
7502;DHT22;3792;47.740;7.606;2023-04-03T03:08:46;6.40;99.90
7502;DHT22;3792;47.740;7.606;2023-04-03T03:11:13;6.40;99.90
7502;DHT22;3792;47.740;7.606;2023-04-03T03:13:40;6.40;99.90
7502;DHT22;3792;47.740;7.606;2023-04-03T03:16:09;6.30;99.90
7502;DHT22;3792;47.740;7.606;2023-04-03T03:18:36;6.30;99.90
7502;DHT22;3792;47.740;7.606;2023-04-03T03:21:03;6.30;99.90
7502;DHT22;3792;47.740;7.606;2023-04-03T03:23:31;6.30;99.90
7502;DHT22;3792;47.740;7.606;2023-04-03T03:26:00;6.30;99.90
7502;DHT22;3792;47.740;7.606;2023-04-03T03:28:27;6.20;99.90
7502;DHT22;3792;47.740;7.606;2023-04-03T03:30:54;6.20;99.90
7502;DHT22;3792;47.740;7.606;2023-04-03T03:33:23;6.10;99.90
7502;DHT22;3792;47.740;7.606;2023-04-03T03:35:51;6.00;99.90
7502;DHT22;3792;47.740;7.606;2023-04-03T03:38:18;5.90;99.90
7502;DHT22;3792;47.740;7.606;2023-04-03T03:40:47;5.80;99.90
7502;DHT22;3792;47.740;7.606;2023-04-03T03:43:14;5.90;99.90
7502;DHT22;3792;47.740;7.606;2023-04-03T03:45:41;5.90;99.90
7502;DHT22;3792;47.740;7.606;2023-04-03T03:48:08;5.80;99.90
7502;DHT22;3792;47.740;7.606;2023-04-03T03:50:37;5.80;99.90
7502;DHT22;3792;47.740;7.606;2023-04-03T03:53:04;5.90;99.90
7502;DHT22;3792;47.740;7.606;2023-04-03T03:55:31;5.80;99.90
7502;DHT22;3792;47.740;7.606;2023-04-03T03:57:58;5.80;99.90
7502;DHT22;3792;47.740;7.606;2023-04-03T04:00:26;5.90;99.90
7502;DHT22;3792;47.740;7.606;2023-04-03T04:02:53;5.90;99.90
7502;DHT22;3792;47.740;7.606;2023-04-03T04:05:21;5.90;99.90
7502;DHT22;3792;47.740;7.606;2023-04-03T04:07:49;5.90;99.90
7502;DHT22;3792;47.740;7.606;2023-04-03T04:10:17;5.80;99.90
7502;DHT22;3792;47.740;7.606;2023-04-03T04:12:44;5.80;99.90
7502;DHT22;3792;47.740;7.606;2023-04-03T04:15:11;5.70;99.90
7502;DHT22;3792;47.740;7.606;2023-04-03T04:17:38;5.80;99.90
7502;DHT22;3792;47.740;7.606;2023-04-03T04:20:06;5.80;99.90
7502;DHT22;3792;47.740;7.606;2023-04-03T04:22:34;5.80;99.90
7502;DHT22;3792;47.740;7.606;2023-04-03T04:25:02;5.80;99.90
7502;DHT22;3792;47.740;7.606;2023-04-03T04:27:29;5.80;99.90
7502;DHT22;3792;47.740;7.606;2023-04-03T04:29:56;5.80;99.90
7502;DHT22;3792;47.740;7.606;2023-04-03T04:32:23;5.80;99.90
7502;DHT22;3792;47.740;7.606;2023-04-03T04:34:50;5.80;99.90
7502;DHT22;3792;47.740;7.606;2023-04-03T04:37:17;5.80;99.90
7502;DHT22;3792;47.740;7.606;2023-04-03T04:39:44;5.80;99.90
7502;DHT22;3792;47.740;7.606;2023-04-03T04:42:13;5.80;99.90
7502;DHT22;3792;47.740;7.606;2023-04-03T04:44:40;5.80;99.90
7502;DHT22;3792;47.740;7.606;2023-04-03T04:47:07;5.80;99.90
7502;DHT22;3792;47.740;7.606;2023-04-03T04:49:34;5.80;99.90
7502;DHT22;3792;47.740;7.606;2023-04-03T04:52:01;5.80;99.90
7502;DHT22;3792;47.740;7.606;2023-04-03T04:54:28;5.80;99.90
7502;DHT22;3792;47.740;7.606;2023-04-03T04:56:55;5.80;99.90
7502;DHT22;3792;47.740;7.606;2023-04-03T04:59:24;5.70;99.90
7502;DHT22;3792;47.740;7.606;2023-04-03T05:01:51;5.70;99.90
7502;DHT22;3792;47.740;7.606;2023-04-03T05:04:18;5.70;99.90
7502;DHT22;3792;47.740;7.606;2023-04-03T05:06:45;5.80;99.90
7502;DHT22;3792;47.740;7.606;2023-04-03T05:09:12;5.80;99.90
7502;DHT22;3792;47.740;7.606;2023-04-03T05:11:39;5.80;99.90
7502;DHT22;3792;47.740;7.606;2023-04-03T05:14:06;5.80;99.90
7502;DHT22;3792;47.740;7.606;2023-04-03T05:16:34;5.80;99.90
7502;DHT22;3792;47.740;7.606;2023-04-03T05:19:01;5.90;99.90
7502;DHT22;3792;47.740;7.606;2023-04-03T05:21:29;5.80;99.90
7502;DHT22;3792;47.740;7.606;2023-04-03T05:23:58;5.90;99.90
7502;DHT22;3792;47.740;7.606;2023-04-03T05:26:28;5.90;99.90
7502;DHT22;3792;47.740;7.606;2023-04-03T05:28:55;5.90;99.90
7502;DHT22;3792;47.740;7.606;2023-04-03T05:31:22;5.90;99.90
7502;DHT22;3792;47.740;7.606;2023-04-03T05:33:51;5.80;99.90
7502;DHT22;3792;47.740;7.606;2023-04-03T05:36:18;5.80;99.90
7502;DHT22;3792;47.740;7.606;2023-04-03T05:38:45;5.70;99.90
7502;DHT22;3792;47.740;7.606;2023-04-03T05:41:12;5.70;99.90
7502;DHT22;3792;47.740;7.606;2023-04-03T05:43:40;5.60;99.90
7502;DHT22;3792;47.740;7.606;2023-04-03T05:46:10;5.60;99.90
7502;DHT22;3792;47.740;7.606;2023-04-03T05:48:38;5.60;99.90
7502;DHT22;3792;47.740;7.606;2023-04-03T05:51:07;5.70;99.90
7502;DHT22;3792;47.740;7.606;2023-04-03T05:53:36;5.70;99.90
7502;DHT22;3792;47.740;7.606;2023-04-03T05:56:04;5.70;99.90
7502;DHT22;3792;47.740;7.606;2023-04-03T05:58:31;5.60;99.90
7502;DHT22;3792;47.740;7.606;2023-04-03T06:00:58;5.80;99.90
7502;DHT22;3792;47.740;7.606;2023-04-03T06:03:25;5.80;99.90
7502;DHT22;3792;47.740;7.606;2023-04-03T06:05:52;5.70;99.90
7502;DHT22;3792;47.740;7.606;2023-04-03T06:08:21;5.50;99.90
7502;DHT22;3792;47.740;7.606;2023-04-03T06:10:49;5.60;99.90
7502;DHT22;3792;47.740;7.606;2023-04-03T06:13:18;5.60;99.90
7502;DHT22;3792;47.740;7.606;2023-04-03T06:15:45;5.60;99.90
7502;DHT22;3792;47.740;7.606;2023-04-03T06:18:12;5.60;99.90
7502;DHT22;3792;47.740;7.606;2023-04-03T06:20:40;5.70;99.90
7502;DHT22;3792;47.740;7.606;2023-04-03T06:23:07;5.60;99.90
7502;DHT22;3792;47.740;7.606;2023-04-03T06:25:38;5.60;99.90
7502;DHT22;3792;47.740;7.606;2023-04-03T06:28:05;5.50;99.90
7502;DHT22;3792;47.740;7.606;2023-04-03T06:30:35;5.40;99.90
7502;DHT22;3792;47.740;7.606;2023-04-03T06:33:02;5.40;99.90
7502;DHT22;3792;47.740;7.606;2023-04-03T06:35:29;5.30;99.90
7502;DHT22;3792;47.740;7.606;2023-04-03T06:37:56;5.30;99.90
7502;DHT22;3792;47.740;7.606;2023-04-03T06:40:25;5.30;99.90
7502;DHT22;3792;47.740;7.606;2023-04-03T06:42:54;5.30;99.90
7502;DHT22;3792;47.740;7.606;2023-04-03T06:45:21;5.40;99.90
7502;DHT22;3792;47.740;7.606;2023-04-03T06:47:48;5.40;99.90
7502;DHT22;3792;47.740;7.606;2023-04-03T06:50:16;5.40;99.90
7502;DHT22;3792;47.740;7.606;2023-04-03T06:52:43;5.50;99.90
7502;DHT22;3792;47.740;7.606;2023-04-03T06:55:10;5.60;99.90
7502;DHT22;3792;47.740;7.606;2023-04-03T06:57:38;5.70;99.90
7502;DHT22;3792;47.740;7.606;2023-04-03T07:00:11;5.70;99.90
7502;DHT22;3792;47.740;7.606;2023-04-03T07:02:38;5.70;99.90
7502;DHT22;3792;47.740;7.606;2023-04-03T07:05:07;5.80;99.90
7502;DHT22;3792;47.740;7.606;2023-04-03T07:07:34;5.80;99.90
7502;DHT22;3792;47.740;7.606;2023-04-03T07:10:04;5.70;99.90
7502;DHT22;3792;47.740;7.606;2023-04-03T07:12:32;5.60;99.90
7502;DHT22;3792;47.740;7.606;2023-04-03T07:14:59;5.50;99.90
7502;DHT22;3792;47.740;7.606;2023-04-03T07:17:28;5.50;99.90
7502;DHT22;3792;47.740;7.606;2023-04-03T07:19:55;5.50;99.90
7502;DHT22;3792;47.740;7.606;2023-04-03T07:22:22;5.40;99.90
7502;DHT22;3792;47.740;7.606;2023-04-03T07:24:49;5.40;99.90
7502;DHT22;3792;47.740;7.606;2023-04-03T07:27:17;5.50;99.90
7502;DHT22;3792;47.740;7.606;2023-04-03T07:29:44;5.60;99.90
7502;DHT22;3792;47.740;7.606;2023-04-03T07:32:14;5.60;99.90
7502;DHT22;3792;47.740;7.606;2023-04-03T07:34:43;5.60;99.90
7502;DHT22;3792;47.740;7.606;2023-04-03T07:37:11;5.80;99.90
7502;DHT22;3792;47.740;7.606;2023-04-03T07:39:38;5.80;99.90
7502;DHT22;3792;47.740;7.606;2023-04-03T07:42:06;5.80;99.90
7502;DHT22;3792;47.740;7.606;2023-04-03T07:44:33;5.80;99.90
7502;DHT22;3792;47.740;7.606;2023-04-03T07:47:01;5.90;99.90
7502;DHT22;3792;47.740;7.606;2023-04-03T07:49:28;5.90;99.90
7502;DHT22;3792;47.740;7.606;2023-04-03T07:51:57;5.90;99.90
7502;DHT22;3792;47.740;7.606;2023-04-03T07:54:24;6.00;99.90
7502;DHT22;3792;47.740;7.606;2023-04-03T07:56:51;6.00;99.90
7502;DHT22;3792;47.740;7.606;2023-04-03T07:59:18;6.10;99.90
7502;DHT22;3792;47.740;7.606;2023-04-03T08:01:45;6.10;99.90
7502;DHT22;3792;47.740;7.606;2023-04-03T08:04:13;6.10;99.90
7502;DHT22;3792;47.740;7.606;2023-04-03T08:06:40;6.10;99.90
7502;DHT22;3792;47.740;7.606;2023-04-03T08:09:08;6.20;99.90
7502;DHT22;3792;47.740;7.606;2023-04-03T08:11:36;6.20;99.90
7502;DHT22;3792;47.740;7.606;2023-04-03T08:14:05;6.30;99.90
7502;DHT22;3792;47.740;7.606;2023-04-03T08:16:33;6.30;99.90
7502;DHT22;3792;47.740;7.606;2023-04-03T08:19:00;6.40;99.90
7502;DHT22;3792;47.740;7.606;2023-04-03T08:21:27;6.40;99.90
7502;DHT22;3792;47.740;7.606;2023-04-03T08:23:54;6.50;99.90
7502;DHT22;3792;47.740;7.606;2023-04-03T08:26:23;6.60;99.90
7502;DHT22;3792;47.740;7.606;2023-04-03T08:28:52;6.60;99.90
7502;DHT22;3792;47.740;7.606;2023-04-03T08:31:19;6.60;99.90
7502;DHT22;3792;47.740;7.606;2023-04-03T08:33:47;6.70;99.90
7502;DHT22;3792;47.740;7.606;2023-04-03T08:36:18;6.70;99.90
7502;DHT22;3792;47.740;7.606;2023-04-03T08:38:46;6.70;99.90
7502;DHT22;3792;47.740;7.606;2023-04-03T08:41:16;6.70;99.90
7502;DHT22;3792;47.740;7.606;2023-04-03T08:43:56;6.60;99.90
7502;DHT22;3792;47.740;7.606;2023-04-03T08:46:33;6.60;99.90
7502;DHT22;3792;47.740;7.606;2023-04-03T08:49:06;6.40;99.90
7502;DHT22;3792;47.740;7.606;2023-04-03T08:51:38;6.50;99.90
7502;DHT22;3792;47.740;7.606;2023-04-03T08:54:26;6.40;99.90
7502;DHT22;3792;47.740;7.606;2023-04-03T08:56:55;6.40;99.90
7502;DHT22;3792;47.740;7.606;2023-04-03T08:59:28;6.40;99.90
7502;DHT22;3792;47.740;7.606;2023-04-03T09:01:58;6.50;99.90
7502;DHT22;3792;47.740;7.606;2023-04-03T09:04:31;6.60;99.90
7502;DHT22;3792;47.740;7.606;2023-04-03T09:07:04;6.60;99.90
7502;DHT22;3792;47.740;7.606;2023-04-03T09:09:35;6.70;99.90
7502;DHT22;3792;47.740;7.606;2023-04-03T09:12:14;6.80;99.90
7502;DHT22;3792;47.740;7.606;2023-04-03T09:14:49;6.80;99.90
7502;DHT22;3792;47.740;7.606;2023-04-03T09:17:29;6.90;99.90
7502;DHT22;3792;47.740;7.606;2023-04-03T09:20:09;6.80;99.90
7502;DHT22;3792;47.740;7.606;2023-04-03T09:22:42;6.90;99.90
7502;DHT22;3792;47.740;7.606;2023-04-03T09:25:13;6.90;99.90
7502;DHT22;3792;47.740;7.606;2023-04-03T09:27:41;6.90;99.90
7502;DHT22;3792;47.740;7.606;2023-04-03T09:30:16;7.10;99.90
7502;DHT22;3792;47.740;7.606;2023-04-03T09:32:45;7.20;99.90
7502;DHT22;3792;47.740;7.606;2023-04-03T09:35:21;7.40;99.90
7502;DHT22;3792;47.740;7.606;2023-04-03T09:37:50;7.50;99.90
7502;DHT22;3792;47.740;7.606;2023-04-03T09:40:32;7.60;99.90
7502;DHT22;3792;47.740;7.606;2023-04-03T09:43:02;7.50;99.90
7502;DHT22;3792;47.740;7.606;2023-04-03T09:45:32;7.10;99.90
7502;DHT22;3792;47.740;7.606;2023-04-03T09:48:06;6.50;99.90
7502;DHT22;3792;47.740;7.606;2023-04-03T09:50:34;6.00;99.90
7502;DHT22;3792;47.740;7.606;2023-04-03T09:53:05;5.80;99.90
7502;DHT22;3792;47.740;7.606;2023-04-03T09:55:42;5.90;99.90
7502;DHT22;3792;47.740;7.606;2023-04-03T09:58:25;6.10;99.90
7502;DHT22;3792;47.740;7.606;2023-04-03T10:00:58;6.10;99.90
7502;DHT22;3792;47.740;7.606;2023-04-03T10:03:29;6.10;99.90
7502;DHT22;3792;47.740;7.606;2023-04-03T10:06:03;6.10;99.90
7502;DHT22;3792;47.740;7.606;2023-04-03T10:08:34;6.00;99.90
7502;DHT22;3792;47.740;7.606;2023-04-03T10:11:08;5.80;99.90
7502;DHT22;3792;47.740;7.606;2023-04-03T10:13:35;5.80;99.90
7502;DHT22;3792;47.740;7.606;2023-04-03T10:16:08;5.80;99.90
7502;DHT22;3792;47.740;7.606;2023-04-03T10:18:41;5.70;99.90
7502;DHT22;3792;47.740;7.606;2023-04-03T10:21:17;5.80;99.90
7502;DHT22;3792;47.740;7.606;2023-04-03T10:23:51;5.60;99.90
7502;DHT22;3792;47.740;7.606;2023-04-03T10:26:28;5.70;99.90
7502;DHT22;3792;47.740;7.606;2023-04-03T10:29:01;5.90;99.90
7502;DHT22;3792;47.740;7.606;2023-04-03T10:31:34;6.00;99.90
7502;DHT22;3792;47.740;7.606;2023-04-03T10:34:05;6.10;99.90
7502;DHT22;3792;47.740;7.606;2023-04-03T10:36:40;6.20;99.90
7502;DHT22;3792;47.740;7.606;2023-04-03T10:39:20;6.20;99.90
7502;DHT22;3792;47.740;7.606;2023-04-03T10:42:01;6.30;99.90
7502;DHT22;3792;47.740;7.606;2023-04-03T10:44:36;6.30;99.90
7502;DHT22;3792;47.740;7.606;2023-04-03T10:47:10;6.30;99.90
7502;DHT22;3792;47.740;7.606;2023-04-03T10:49:46;6.50;99.90
7502;DHT22;3792;47.740;7.606;2023-04-03T10:52:22;6.70;99.90
7502;DHT22;3792;47.740;7.606;2023-04-03T10:54:58;6.70;99.90
7502;DHT22;3792;47.740;7.606;2023-04-03T10:57:29;6.70;99.90
7502;DHT22;3792;47.740;7.606;2023-04-03T10:59:59;6.90;99.90
7502;DHT22;3792;47.740;7.606;2023-04-03T11:02:31;6.90;99.90
7502;DHT22;3792;47.740;7.606;2023-04-03T11:05:02;6.80;99.90
7502;DHT22;3792;47.740;7.606;2023-04-03T11:07:34;6.90;99.90
7502;DHT22;3792;47.740;7.606;2023-04-03T11:10:10;6.80;99.90
7502;DHT22;3792;47.740;7.606;2023-04-03T11:12:43;6.70;99.90
7502;DHT22;3792;47.740;7.606;2023-04-03T11:15:12;6.90;99.90
7502;DHT22;3792;47.740;7.606;2023-04-03T11:17:44;7.20;99.90
7502;DHT22;3792;47.740;7.606;2023-04-03T11:20:21;7.40;99.90
7502;DHT22;3792;47.740;7.606;2023-04-03T11:22:57;7.70;99.90
7502;DHT22;3792;47.740;7.606;2023-04-03T11:25:25;7.80;99.90
7502;DHT22;3792;47.740;7.606;2023-04-03T11:27:57;8.00;99.90
7502;DHT22;3792;47.740;7.606;2023-04-03T11:30:28;8.30;99.90
7502;DHT22;3792;47.740;7.606;2023-04-03T11:33:10;8.60;99.90
7502;DHT22;3792;47.740;7.606;2023-04-03T11:35:47;8.80;99.90
7502;DHT22;3792;47.740;7.606;2023-04-03T11:38:21;9.00;99.90
7502;DHT22;3792;47.740;7.606;2023-04-03T11:40:50;9.20;99.90
7502;DHT22;3792;47.740;7.606;2023-04-03T11:43:23;9.30;99.90
7502;DHT22;3792;47.740;7.606;2023-04-03T11:45:54;9.40;99.90
7502;DHT22;3792;47.740;7.606;2023-04-03T11:48:47;9.50;99.90
7502;DHT22;3792;47.740;7.606;2023-04-03T11:51:42;9.30;99.90
7502;DHT22;3792;47.740;7.606;2023-04-03T11:54:35;9.60;99.90
7502;DHT22;3792;47.740;7.606;2023-04-03T12:06:49;9.90;99.90
7502;DHT22;3792;47.740;7.606;2023-04-03T12:09:31;9.80;99.90
7502;DHT22;3792;47.740;7.606;2023-04-03T12:12:01;9.80;99.20
7502;DHT22;3792;47.740;7.606;2023-04-03T12:14:29;9.70;99.90
7502;DHT22;3792;47.740;7.606;2023-04-03T12:16:56;9.60;99.90
7502;DHT22;3792;47.740;7.606;2023-04-03T12:19:43;9.50;99.30
7502;DHT22;3792;47.740;7.606;2023-04-03T12:22:18;9.60;99.50
7502;DHT22;3792;47.740;7.606;2023-04-03T12:24:47;9.70;99.60
7502;DHT22;3792;47.740;7.606;2023-04-03T12:27:29;9.70;98.80
7502;DHT22;3792;47.740;7.606;2023-04-03T12:30:05;9.70;98.70
7502;DHT22;3792;47.740;7.606;2023-04-03T12:32:46;9.70;99.20
7502;DHT22;3792;47.740;7.606;2023-04-03T12:35:21;9.70;99.40
7502;DHT22;3792;47.740;7.606;2023-04-03T12:38:07;9.60;99.90
7502;DHT22;3792;47.740;7.606;2023-04-03T12:40:47;9.60;99.20
7502;DHT22;3792;47.740;7.606;2023-04-03T12:43:30;9.50;99.50
7502;DHT22;3792;47.740;7.606;2023-04-03T12:46:04;9.60;99.30
7502;DHT22;3792;47.740;7.606;2023-04-03T12:48:37;9.60;98.70
7502;DHT22;3792;47.740;7.606;2023-04-03T12:51:05;9.70;99.10
7502;DHT22;3792;47.740;7.606;2023-04-03T12:53:35;9.70;98.70
7502;DHT22;3792;47.740;7.606;2023-04-03T12:56:21;9.80;98.60
7502;DHT22;3792;47.740;7.606;2023-04-03T12:58:50;9.80;97.90
7502;DHT22;3792;47.740;7.606;2023-04-03T13:01:20;9.90;98.10
7502;DHT22;3792;47.740;7.606;2023-04-03T13:03:53;9.80;97.80
7502;DHT22;3792;47.740;7.606;2023-04-03T13:06:23;9.70;97.50
7502;DHT22;3792;47.740;7.606;2023-04-03T13:08:55;9.70;98.20
7502;DHT22;3792;47.740;7.606;2023-04-03T13:11:25;9.70;98.40
7502;DHT22;3792;47.740;7.606;2023-04-03T13:13:57;9.70;97.90
7502;DHT22;3792;47.740;7.606;2023-04-03T13:16:25;9.70;97.70
7502;DHT22;3792;47.740;7.606;2023-04-03T13:18:53;9.70;97.80
7502;DHT22;3792;47.740;7.606;2023-04-03T13:21:23;9.70;97.90
7502;DHT22;3792;47.740;7.606;2023-04-03T13:23:53;9.70;97.40
7502;DHT22;3792;47.740;7.606;2023-04-03T13:26:23;9.70;97.30
7502;DHT22;3792;47.740;7.606;2023-04-03T13:28:52;9.60;97.50
7502;DHT22;3792;47.740;7.606;2023-04-03T13:31:22;9.70;96.80
7502;DHT22;3792;47.740;7.606;2023-04-03T13:33:56;9.70;97.00
7502;DHT22;3792;47.740;7.606;2023-04-03T13:36:27;9.80;97.10
7502;DHT22;3792;47.740;7.606;2023-04-03T13:39:04;9.90;97.00
7502;DHT22;3792;47.740;7.606;2023-04-03T13:41:35;10.00;96.20
7502;DHT22;3792;47.740;7.606;2023-04-03T13:44:30;10.10;96.70
7502;DHT22;3792;47.740;7.606;2023-04-03T13:47:00;10.10;95.30
7502;DHT22;3792;47.740;7.606;2023-04-03T13:49:33;10.10;94.70
7502;DHT22;3792;47.740;7.606;2023-04-03T13:52:03;10.10;95.10
7502;DHT22;3792;47.740;7.606;2023-04-03T13:54:33;10.10;95.40
7502;DHT22;3792;47.740;7.606;2023-04-03T13:57:02;10.10;95.30
7502;DHT22;3792;47.740;7.606;2023-04-03T13:59:30;10.10;95.10
7502;DHT22;3792;47.740;7.606;2023-04-03T14:02:16;10.20;94.80
7502;DHT22;3792;47.740;7.606;2023-04-03T14:04:53;10.10;95.50
7502;DHT22;3792;47.740;7.606;2023-04-03T14:07:24;9.90;97.00
7502;DHT22;3792;47.740;7.606;2023-04-03T14:09:52;9.80;96.90
7502;DHT22;3792;47.740;7.606;2023-04-03T14:12:25;9.60;97.40
7502;DHT22;3792;47.740;7.606;2023-04-03T14:14:53;9.30;97.40
7502;DHT22;3792;47.740;7.606;2023-04-03T14:17:23;9.30;97.70
7502;DHT22;3792;47.740;7.606;2023-04-03T14:19:52;9.20;98.00
7502;DHT22;3792;47.740;7.606;2023-04-03T14:22:21;9.10;97.40
7502;DHT22;3792;47.740;7.606;2023-04-03T14:24:49;8.90;97.70
7502;DHT22;3792;47.740;7.606;2023-04-03T14:27:20;8.90;97.70
7502;DHT22;3792;47.740;7.606;2023-04-03T14:29:49;8.90;98.00
7502;DHT22;3792;47.740;7.606;2023-04-03T14:32:18;8.90;97.70
7502;DHT22;3792;47.740;7.606;2023-04-03T14:34:46;8.90;97.70
7502;DHT22;3792;47.740;7.606;2023-04-03T14:37:17;8.90;96.40
7502;DHT22;3792;47.740;7.606;2023-04-03T14:39:45;8.90;95.90
7502;DHT22;3792;47.740;7.606;2023-04-03T14:42:14;8.80;96.60
7502;DHT22;3792;47.740;7.606;2023-04-03T14:44:43;8.70;94.90
7502;DHT22;3792;47.740;7.606;2023-04-03T14:47:11;8.70;95.60
7502;DHT22;3792;47.740;7.606;2023-04-03T14:49:39;8.70;96.20
7502;DHT22;3792;47.740;7.606;2023-04-03T14:52:09;8.80;95.10
7502;DHT22;3792;47.740;7.606;2023-04-03T14:54:43;8.80;95.70
7502;DHT22;3792;47.740;7.606;2023-04-03T14:57:11;8.90;95.70
7502;DHT22;3792;47.740;7.606;2023-04-03T14:59:39;8.90;96.20
7502;DHT22;3792;47.740;7.606;2023-04-03T15:02:25;8.90;96.50
7502;DHT22;3792;47.740;7.606;2023-04-03T15:04:53;8.90;95.90
7502;DHT22;3792;47.740;7.606;2023-04-03T15:07:21;8.90;95.20
7502;DHT22;3792;47.740;7.606;2023-04-03T15:09:48;8.90;95.10
7502;DHT22;3792;47.740;7.606;2023-04-03T15:12:16;8.90;96.10
7502;DHT22;3792;47.740;7.606;2023-04-03T15:14:43;8.90;96.60
7502;DHT22;3792;47.740;7.606;2023-04-03T15:17:16;8.90;96.70
7502;DHT22;3792;47.740;7.606;2023-04-03T15:19:44;8.90;96.50
7502;DHT22;3792;47.740;7.606;2023-04-03T15:22:14;8.90;96.80
7502;DHT22;3792;47.740;7.606;2023-04-03T15:24:42;8.90;97.40
7502;DHT22;3792;47.740;7.606;2023-04-03T15:27:10;8.90;96.80
7502;DHT22;3792;47.740;7.606;2023-04-03T15:29:38;8.70;97.40
7502;DHT22;3792;47.740;7.606;2023-04-03T15:32:06;8.80;97.70
7502;DHT22;3792;47.740;7.606;2023-04-03T15:34:36;8.70;97.00
7502;DHT22;3792;47.740;7.606;2023-04-03T15:37:03;8.80;96.80
7502;DHT22;3792;47.740;7.606;2023-04-03T15:39:30;8.80;97.00
7502;DHT22;3792;47.740;7.606;2023-04-03T15:41:58;8.80;97.20
7502;DHT22;3792;47.740;7.606;2023-04-03T15:44:32;8.70;96.30
7502;DHT22;3792;47.740;7.606;2023-04-03T15:47:00;8.60;97.10
7502;DHT22;3792;47.740;7.606;2023-04-03T15:49:29;8.60;96.60
7502;DHT22;3792;47.740;7.606;2023-04-03T15:51:58;8.70;96.80
7502;DHT22;3792;47.740;7.606;2023-04-03T15:54:25;8.70;96.80
7502;DHT22;3792;47.740;7.606;2023-04-03T15:56:52;8.60;95.70
7502;DHT22;3792;47.740;7.606;2023-04-03T15:59:19;8.60;95.60
7502;DHT22;3792;47.740;7.606;2023-04-03T16:01:47;8.60;95.30
7502;DHT22;3792;47.740;7.606;2023-04-03T16:04:15;8.50;94.50
7502;DHT22;3792;47.740;7.606;2023-04-03T16:06:42;8.40;94.90
7502;DHT22;3792;47.740;7.606;2023-04-03T16:09:11;8.50;95.10
7502;DHT22;3792;47.740;7.606;2023-04-03T16:11:38;8.60;95.30
7502;DHT22;3792;47.740;7.606;2023-04-03T16:14:06;8.60;95.70
7502;DHT22;3792;47.740;7.606;2023-04-03T16:16:34;8.60;96.70
7502;DHT22;3792;47.740;7.606;2023-04-03T16:19:03;8.60;97.10
7502;DHT22;3792;47.740;7.606;2023-04-03T16:21:31;8.50;97.30
7502;DHT22;3792;47.740;7.606;2023-04-03T16:23:58;8.30;97.10
7502;DHT22;3792;47.740;7.606;2023-04-03T16:26:27;8.30;97.20
7502;DHT22;3792;47.740;7.606;2023-04-03T16:28:54;8.30;97.40
7502;DHT22;3792;47.740;7.606;2023-04-03T16:31:21;8.20;97.10
7502;DHT22;3792;47.740;7.606;2023-04-03T16:33:49;8.20;97.20
7502;DHT22;3792;47.740;7.606;2023-04-03T16:36:17;8.20;97.70
7502;DHT22;3792;47.740;7.606;2023-04-03T16:38:44;8.20;97.50
7502;DHT22;3792;47.740;7.606;2023-04-03T16:41:11;8.20;96.60
7502;DHT22;3792;47.740;7.606;2023-04-03T16:43:39;8.20;96.90
7502;DHT22;3792;47.740;7.606;2023-04-03T16:46:06;8.20;96.60